首页
METAR-TAF:

METAR-TAF

机场 :

卡尔维, 法国

纬度: 42-32N, 经度: 008-48E, 海拔: 64米

当前天气观测

该预报发布于37分钟前的15:30 UTC
风速11节,风向南转西南
温度 22°C
湿度 60%
气压 1003 hPa
能见度10公里或以上
散云层高于3500英尺
多云层高于4200英尺

METAR: LFKC 051530Z AUTO 21011KT 9999 SCT035 BKN042 22/14 Q1003 TEMPO 21017G27KT

时间: 18:07 (16:07 UTC)

预报

该预报发布于2小时和7分钟前的14:00 UTC
预报有效从05日的 15点(UTC)到 06日的 15点(UTC)
风速12节,风向西南
能见度10公里或以上
散云层高于3000英尺
短暂存在
从 05日的 15点(UTC)到 06日的 05点(UTC)
多云层高于3300英尺
短暂存在
从 05日的 15点(UTC)到 06日的 15点(UTC)
风速17节,风向南转西南,有时为27节阵风

TAF: LFKC 051400Z 0515/0615 22012KT 9999 SCT030 TX25/0612Z TN15/0603Z TEMPO 0515/0605 BKN033 TEMPO 0515/0615 21017G27KT

超过4000个机场的气象观测和天气预报(METAR&TAF报告)。

可查询的气象台以黄色和红色小点在地图上表示。

将鼠标移到小点上方,可查看气象台名称。

然后点击查看天气观测和预报。

如需切换地图:点击带黑十字的绿色按钮放大地图;点击带横线的绿色按钮缩小地图;或者点击绿色箭头查看邻近地区的地图。


METAR-TAF: